createdAt,value
2023-04-30T00:00:36.369Z,100589.34
2023-04-30T00:03:38.802Z,100596.38
2023-04-30T00:06:41.724Z,100601.34
2023-04-30T00:09:44.151Z,100594.03
2023-04-30T00:12:46.543Z,100596.59
2023-04-30T00:15:48.991Z,100611.75
2023-04-30T00:18:51.446Z,100607.00
2023-04-30T00:21:54.357Z,100605.84
2023-04-30T00:24:56.798Z,100610.44
2023-04-30T00:27:59.367Z,100612.72
2023-04-30T00:31:01.733Z,100607.50
2023-04-30T00:34:04.127Z,100613.28
2023-04-30T00:40:44.828Z,100633.75
2023-04-30T00:43:47.326Z,100640.59
2023-04-30T00:46:49.809Z,100634.88
2023-04-30T00:49:52.471Z,100644.53
2023-04-30T00:52:55.616Z,100644.03
2023-04-30T00:55:58.587Z,100656.88
2023-04-30T00:59:01.565Z,100648.06
2023-04-30T01:02:04.448Z,100653.38
2023-04-30T01:05:07.962Z,100660.91
2023-04-30T01:08:11.402Z,100665.41
2023-04-30T01:11:41.874Z,100672.31
2023-04-30T01:15:05.445Z,100671.38
2023-04-30T01:18:22.889Z,100675.16
2023-04-30T01:21:26.176Z,100672.19
2023-04-30T01:24:53.297Z,100679.59
2023-04-30T01:28:17.779Z,100678.75
2023-04-30T01:31:20.880Z,100672.72
2023-04-30T01:34:23.608Z,100682.81
2023-04-30T01:38:00.192Z,100682.19
2023-04-30T01:41:18.192Z,100672.19
2023-04-30T01:44:48.200Z,100681.22
2023-04-30T01:47:54.068Z,100679.78
2023-04-30T01:51:05.340Z,100669.63
2023-04-30T01:54:23.569Z,100688.97
2023-04-30T01:57:33.213Z,100689.66
2023-04-30T02:00:35.809Z,100695.13
2023-04-30T02:03:38.470Z,100688.28
2023-04-30T02:06:42.919Z,100699.50
2023-04-30T02:09:45.559Z,100705.25
2023-04-30T02:12:48.076Z,100697.78
2023-04-30T02:15:50.595Z,100709.91
2023-04-30T02:18:53.269Z,100712.19
2023-04-30T02:21:55.850Z,100712.72
2023-04-30T02:24:58.442Z,100716.97
2023-04-30T02:28:00.934Z,100712.66
2023-04-30T02:31:04.434Z,100717.69
2023-04-30T02:34:06.824Z,100713.28
2023-04-30T02:37:09.849Z,100710.59
2023-04-30T02:40:13.045Z,100710.94
2023-04-30T02:43:15.521Z,100710.13
2023-04-30T02:46:18.698Z,100710.63
2023-04-30T02:49:21.225Z,100713.84
2023-04-30T02:52:23.632Z,100724.63
2023-04-30T02:55:26.147Z,100727.00
2023-04-30T02:58:28.660Z,100736.16
2023-04-30T03:01:31.538Z,100730.38
2023-04-30T03:04:34.277Z,100734.78
2023-04-30T03:07:36.659Z,100739.03
2023-04-30T03:10:39.091Z,100744.03
2023-04-30T03:13:43.395Z,100747.72
2023-04-30T03:16:45.746Z,100746.66
2023-04-30T03:19:48.061Z,100748.78
2023-04-30T03:22:50.370Z,100746.19
2023-04-30T03:25:52.793Z,100751.22
2023-04-30T03:28:56.002Z,100764.47
2023-04-30T03:31:59.124Z,100768.06
2023-04-30T03:35:01.808Z,100764.19
2023-04-30T03:38:04.791Z,100755.53
2023-04-30T03:41:07.264Z,100764.41
2023-04-30T03:44:15.820Z,100765.94
2023-04-30T03:47:18.486Z,100774.84
2023-04-30T03:50:20.923Z,100762.16
2023-04-30T03:53:24.661Z,100793.34
2023-04-30T03:56:27.343Z,100795.72
2023-04-30T03:59:29.824Z,100790.50
2023-04-30T04:02:32.569Z,100803.84
2023-04-30T04:05:35.008Z,100799.09
2023-04-30T04:08:37.586Z,100799.31
2023-04-30T04:11:40.803Z,100794.75
2023-04-30T04:14:43.273Z,100815.50
2023-04-30T04:17:45.893Z,100811.25
2023-04-30T04:20:48.313Z,100817.38
2023-04-30T04:23:52.389Z,100821.16
2023-04-30T04:26:54.880Z,100828.78
2023-04-30T04:29:57.378Z,100824.03
2023-04-30T04:33:00.624Z,100829.38
2023-04-30T04:36:05.351Z,100837.34
2023-04-30T04:39:08.269Z,100838.16
2023-04-30T04:42:12.329Z,100847.41
2023-04-30T04:45:15.950Z,100847.16
2023-04-30T04:48:18.701Z,100854.78
2023-04-30T04:51:21.280Z,100842.66
2023-04-30T04:54:24.112Z,100852.09
2023-04-30T04:57:26.887Z,100862.00
2023-04-30T05:00:30.000Z,100866.47
2023-04-30T05:03:33.446Z,100860.16
2023-04-30T05:06:36.312Z,100859.06
2023-04-30T05:09:39.031Z,100868.88
2023-04-30T05:12:41.583Z,100875.09
2023-04-30T05:15:43.948Z,100861.53
2023-04-30T05:18:46.506Z,100872.09
2023-04-30T05:21:48.930Z,100882.09
2023-04-30T05:24:53.254Z,100883.50
2023-04-30T05:27:56.484Z,100886.59
2023-04-30T05:30:58.888Z,100886.78
2023-04-30T05:34:01.240Z,100895.28
2023-04-30T05:37:04.230Z,100893.03
2023-04-30T05:40:07.460Z,100897.41
2023-04-30T05:43:10.148Z,100906.78
2023-04-30T05:46:12.585Z,100900.19
2023-04-30T05:49:15.380Z,100901.47
2023-04-30T05:52:17.842Z,100914.16
2023-04-30T05:55:20.592Z,100917.84
2023-04-30T05:58:23.079Z,100894.81
2023-04-30T06:01:25.880Z,100919.91
2023-04-30T06:04:28.165Z,100917.53
2023-04-30T06:07:30.907Z,100918.69
2023-04-30T06:10:33.377Z,100932.66
2023-04-30T06:13:35.797Z,100927.03
2023-04-30T06:16:39.065Z,100934.66
2023-04-30T06:19:41.461Z,100941.16
2023-04-30T06:22:44.129Z,100932.97
2023-04-30T06:25:46.860Z,100930.00
2023-04-30T06:28:49.362Z,100937.16
2023-04-30T06:31:52.606Z,100936.69
2023-04-30T06:34:56.007Z,100938.09
2023-04-30T06:37:58.597Z,100942.16
2023-04-30T06:41:01.090Z,100951.84
2023-04-30T06:44:03.775Z,100950.97
2023-04-30T06:47:06.226Z,100951.47
2023-04-30T06:50:09.588Z,100938.59
2023-04-30T06:53:13.570Z,100953.69
2023-04-30T06:56:16.528Z,100952.03
2023-04-30T06:59:19.105Z,100953.03
2023-04-30T07:02:22.558Z,100965.56
2023-04-30T07:05:25.056Z,100966.88
2023-04-30T07:08:27.500Z,100967.72
2023-04-30T07:11:30.045Z,100975.06
2023-04-30T07:14:32.611Z,100972.44
2023-04-30T07:17:36.209Z,100976.75
2023-04-30T07:20:38.794Z,100978.44
2023-04-30T07:23:45.780Z,100974.66
2023-04-30T07:26:50.513Z,100967.31
2023-04-30T07:29:54.132Z,100974.44
2023-04-30T07:32:57.675Z,100969.72
2023-04-30T07:36:02.572Z,100969.53
2023-04-30T07:39:06.527Z,100980.59
2023-04-30T07:42:09.948Z,100989.78
2023-04-30T07:45:13.495Z,100997.34
2023-04-30T07:48:16.950Z,100993.44
2023-04-30T07:51:19.443Z,101009.00
2023-04-30T07:54:22.079Z,101001.88
2023-04-30T07:57:26.697Z,100998.28
2023-04-30T08:00:31.162Z,101009.81
2023-04-30T08:03:34.561Z,101009.19
2023-04-30T08:06:37.063Z,100999.22
2023-04-30T08:09:42.509Z,101007.28
2023-04-30T08:12:45.670Z,101011.16
2023-04-30T08:15:48.450Z,101006.53
2023-04-30T08:18:51.581Z,101009.44
2023-04-30T08:21:54.438Z,101018.94
2023-04-30T08:24:56.983Z,101020.81
2023-04-30T08:28:00.681Z,101007.16
2023-04-30T08:31:03.578Z,101025.25
2023-04-30T08:34:08.128Z,101025.72
2023-04-30T08:37:10.878Z,101030.56
2023-04-30T08:40:18.017Z,101022.06
2023-04-30T08:43:21.187Z,101032.53
2023-04-30T08:46:25.493Z,101035.81
2023-04-30T08:49:28.439Z,101038.94
2023-04-30T08:52:31.094Z,101020.91
2023-04-30T08:55:34.801Z,101034.22
2023-04-30T08:58:37.738Z,101040.50
2023-04-30T09:01:40.487Z,101037.59
2023-04-30T09:04:42.879Z,101039.13
2023-04-30T09:10:53.528Z,101020.94
2023-04-30T09:13:58.176Z,101049.94
2023-04-30T09:17:00.635Z,101047.25
2023-04-30T09:20:10.840Z,101045.88
2023-04-30T09:23:13.303Z,101060.63
2023-04-30T09:26:22.263Z,101055.44
2023-04-30T09:29:37.368Z,101049.94
2023-04-30T09:32:56.487Z,101056.31
2023-04-30T09:35:59.163Z,101049.44
2023-04-30T09:39:15.659Z,101047.53
2023-04-30T09:42:19.772Z,101051.59
2023-04-30T09:45:22.270Z,101047.19
2023-04-30T09:48:28.359Z,101048.31
2023-04-30T09:51:31.903Z,101053.84
2023-04-30T09:54:34.394Z,101042.03
2023-04-30T09:57:37.799Z,101039.81
2023-04-30T10:00:40.797Z,101041.47
2023-04-30T10:03:44.070Z,101055.72
2023-04-30T10:06:47.236Z,101058.19
2023-04-30T10:09:52.405Z,101049.97
2023-04-30T10:13:01.635Z,101037.41
2023-04-30T10:16:09.238Z,101043.44
2023-04-30T10:19:15.750Z,101043.13
2023-04-30T10:22:18.135Z,101041.16
2023-04-30T10:25:20.730Z,101039.25
2023-04-30T10:28:25.405Z,101038.41
2023-04-30T10:31:29.350Z,101030.91
2023-04-30T10:34:45.917Z,101042.97
2023-04-30T10:37:49.900Z,101034.47
2023-04-30T10:40:57.476Z,101030.31
2023-04-30T10:44:02.945Z,101037.75
2023-04-30T10:47:06.585Z,101025.78
2023-04-30T10:50:10.032Z,101037.41
2023-04-30T10:53:18.046Z,101045.63
2023-04-30T10:56:33.303Z,101042.09
2023-04-30T10:59:35.925Z,101032.19
2023-04-30T11:02:47.488Z,101034.16
2023-04-30T11:05:50.341Z,101016.22
2023-04-30T11:08:52.772Z,101028.50
2023-04-30T11:12:03.893Z,101038.66
2023-04-30T11:15:12.765Z,101030.72
2023-04-30T11:18:15.270Z,101036.09
2023-04-30T11:21:17.682Z,101025.53
2023-04-30T11:24:20.727Z,101032.75
2023-04-30T11:27:24.435Z,101031.97
2023-04-30T11:30:27.109Z,101037.31
2023-04-30T11:33:32.143Z,101022.44
2023-04-30T11:36:35.246Z,101028.13
2023-04-30T11:39:37.813Z,101033.34
2023-04-30T11:42:44.917Z,101028.31
2023-04-30T11:46:10.373Z,101030.47
2023-04-30T11:49:12.925Z,101029.81
2023-04-30T11:52:15.399Z,101042.81
2023-04-30T11:55:19.811Z,101040.19
2023-04-30T11:58:23.275Z,101044.97
2023-04-30T12:01:28.908Z,101035.63
2023-04-30T12:04:31.404Z,101040.41
2023-04-30T12:07:34.920Z,101027.09
2023-04-30T12:10:37.562Z,101034.44
2023-04-30T12:13:39.981Z,101040.53
2023-04-30T12:16:46.260Z,101033.81
2023-04-30T12:19:48.625Z,101029.22
2023-04-30T12:22:51.491Z,101025.66
2023-04-30T12:25:54.141Z,101017.44
2023-04-30T12:28:56.842Z,101024.78
2023-04-30T12:32:00.097Z,101032.81
2023-04-30T12:35:04.989Z,101028.94
2023-04-30T12:38:09.857Z,101016.84
2023-04-30T12:41:17.496Z,101023.59
2023-04-30T12:44:27.763Z,101017.66
2023-04-30T12:47:30.955Z,101016.13
2023-04-30T12:50:33.766Z,101011.06
2023-04-30T12:53:46.032Z,101016.75
2023-04-30T12:57:12.039Z,101012.94
2023-04-30T13:00:15.199Z,101004.34
2023-04-30T13:03:21.041Z,101005.34
2023-04-30T13:06:23.866Z,101025.75
2023-04-30T13:09:26.469Z,101018.13
2023-04-30T13:12:29.071Z,101015.81
2023-04-30T13:15:31.860Z,101012.59
2023-04-30T13:18:34.332Z,101021.25
2023-04-30T13:21:36.799Z,101014.31
2023-04-30T13:24:39.157Z,101008.78
2023-04-30T13:27:41.846Z,101013.53
2023-04-30T13:30:44.448Z,101001.22
2023-04-30T13:33:47.002Z,101004.28
2023-04-30T13:36:49.624Z,101014.03
2023-04-30T13:39:52.125Z,101007.69
2023-04-30T13:42:55.060Z,100955.28
2023-04-30T13:46:02.823Z,101003.97
2023-04-30T13:49:06.362Z,100999.56
2023-04-30T13:52:08.838Z,100995.59
2023-04-30T13:55:11.321Z,100999.97
2023-04-30T13:58:13.946Z,101006.38
2023-04-30T14:01:16.375Z,101002.03
2023-04-30T14:04:19.137Z,101008.16
2023-04-30T14:07:21.594Z,100998.09
2023-04-30T14:10:24.055Z,101000.69
2023-04-30T14:13:26.422Z,100992.31
2023-04-30T14:16:29.099Z,100996.53
2023-04-30T14:19:31.858Z,101000.84
2023-04-30T14:22:38.667Z,100998.03
2023-04-30T14:25:42.288Z,100989.16
2023-04-30T14:28:45.211Z,100998.03
2023-04-30T14:31:47.783Z,100991.81
2023-04-30T14:34:50.283Z,101004.16
2023-04-30T14:37:53.957Z,100996.31
2023-04-30T14:40:56.331Z,100997.84
2023-04-30T14:43:58.793Z,100994.91
2023-04-30T14:47:01.590Z,101002.22
2023-04-30T14:50:04.458Z,101007.00
2023-04-30T14:53:07.077Z,101006.81
2023-04-30T14:56:10.135Z,101010.38
2023-04-30T14:59:13.778Z,101016.34
2023-04-30T15:02:16.372Z,101018.19
2023-04-30T15:05:19.218Z,101016.25
2023-04-30T15:08:22.012Z,101010.38
2023-04-30T15:11:25.093Z,101012.72
2023-04-30T15:14:27.639Z,101006.56
2023-04-30T15:17:30.096Z,101009.66
2023-04-30T15:20:32.692Z,101011.19
2023-04-30T15:23:35.082Z,101009.75
2023-04-30T15:26:37.487Z,101015.88
2023-04-30T15:29:40.804Z,101014.69
2023-04-30T15:32:43.231Z,101020.56
2023-04-30T15:35:46.313Z,101023.50
2023-04-30T15:38:48.690Z,101010.75
2023-04-30T15:41:51.168Z,101015.59
2023-04-30T15:44:53.939Z,101005.25
2023-04-30T15:47:56.393Z,101022.56
2023-04-30T15:50:58.828Z,101021.91
2023-04-30T15:54:01.150Z,101023.72
2023-04-30T15:57:04.042Z,101017.91
2023-04-30T16:00:07.295Z,101014.84
2023-04-30T16:03:14.058Z,101009.34
2023-04-30T16:06:17.266Z,101010.81
2023-04-30T16:09:20.000Z,101009.91
2023-04-30T16:12:23.352Z,101008.41
2023-04-30T16:15:26.213Z,101021.97
2023-04-30T16:18:30.249Z,101010.38
2023-04-30T16:21:34.597Z,101025.81
2023-04-30T16:24:38.205Z,101010.66
2023-04-30T16:27:40.883Z,101019.00
2023-04-30T16:30:43.888Z,101016.59
2023-04-30T16:33:47.038Z,101014.59
2023-04-30T16:36:49.646Z,101032.81
2023-04-30T16:39:51.982Z,101022.84
2023-04-30T16:42:54.474Z,101028.19
2023-04-30T16:45:56.997Z,101029.75
2023-04-30T16:49:00.013Z,101028.28
2023-04-30T16:52:02.589Z,101033.41
2023-04-30T16:55:05.243Z,101043.97
2023-04-30T16:58:07.608Z,101047.56
2023-04-30T17:01:10.052Z,101045.47
2023-04-30T17:04:12.658Z,101038.63
2023-04-30T17:07:16.418Z,101020.63
2023-04-30T17:10:19.737Z,101040.41
2023-04-30T17:13:24.246Z,101047.25
2023-04-30T17:16:27.144Z,101053.53
2023-04-30T17:19:29.614Z,101053.53
2023-04-30T17:22:31.919Z,101051.38
2023-04-30T17:25:34.507Z,101056.81
2023-04-30T17:28:37.684Z,101063.94
2023-04-30T17:31:40.265Z,101069.41
2023-04-30T17:34:42.819Z,101077.59
2023-04-30T17:37:45.212Z,101072.91
2023-04-30T17:40:47.679Z,101077.53
2023-04-30T17:43:51.820Z,101091.81
2023-04-30T17:46:55.369Z,101091.66
2023-04-30T17:49:58.360Z,101098.47
2023-04-30T17:53:00.864Z,101103.97
2023-04-30T17:56:03.982Z,101101.84
2023-04-30T17:59:07.681Z,101108.03
2023-04-30T18:02:10.073Z,101106.78
2023-04-30T18:05:12.616Z,101109.06
2023-04-30T18:08:17.250Z,101114.38
2023-04-30T18:11:19.613Z,101110.09
2023-04-30T18:14:21.950Z,101115.84
2023-04-30T18:17:24.342Z,101110.03
2023-04-30T18:20:26.961Z,101114.69
2023-04-30T18:23:29.242Z,101120.38
2023-04-30T18:26:31.800Z,101134.91
2023-04-30T18:29:35.567Z,101132.19
2023-04-30T18:32:38.321Z,101143.09
2023-04-30T18:35:40.871Z,101142.38
2023-04-30T18:38:45.663Z,101153.25
2023-04-30T18:41:48.197Z,101151.28
2023-04-30T18:44:51.072Z,101142.69
2023-04-30T18:47:53.411Z,101157.16
2023-04-30T18:50:56.086Z,101158.03
2023-04-30T18:53:59.081Z,101164.09
2023-04-30T18:57:02.129Z,101166.13
2023-04-30T19:00:06.872Z,101172.38
2023-04-30T19:03:09.867Z,101161.53
2023-04-30T19:06:12.445Z,101175.47
2023-04-30T19:09:15.515Z,101179.72
2023-04-30T19:12:18.218Z,101176.81
2023-04-30T19:15:20.585Z,101186.25
2023-04-30T19:18:24.951Z,101179.59
2023-04-30T19:21:28.679Z,101185.72
2023-04-30T19:24:31.117Z,101178.00
2023-04-30T19:27:33.496Z,101189.41
2023-04-30T19:30:35.967Z,101191.38
2023-04-30T19:33:41.075Z,101181.63
2023-04-30T19:36:46.522Z,101178.84
2023-04-30T19:39:48.909Z,101195.25
2023-04-30T19:42:53.093Z,101193.75
2023-04-30T19:45:58.321Z,101198.13
2023-04-30T19:49:00.684Z,101205.88
2023-04-30T19:52:03.232Z,101198.56
2023-04-30T19:55:06.004Z,101200.88
2023-04-30T19:58:08.602Z,101205.09
2023-04-30T20:01:11.070Z,101192.75
2023-04-30T20:04:13.461Z,101205.16
2023-04-30T20:07:15.950Z,101203.41
2023-04-30T20:10:19.870Z,101205.31
2023-04-30T20:13:24.504Z,101222.34
2023-04-30T20:16:27.081Z,101221.66
2023-04-30T20:19:29.510Z,101219.31
2023-04-30T20:22:33.010Z,101218.44
2023-04-30T20:25:35.714Z,101228.94
2023-04-30T20:28:38.502Z,101223.41
2023-04-30T20:31:41.095Z,101234.72
2023-04-30T20:34:43.743Z,101237.50
2023-04-30T20:37:46.821Z,101232.66
2023-04-30T20:40:49.589Z,101228.22
2023-04-30T20:43:52.260Z,101226.44
2023-04-30T20:46:54.781Z,101232.50
2023-04-30T20:49:58.093Z,101225.78
2023-04-30T20:53:00.819Z,101232.34
2023-04-30T20:56:03.817Z,101236.22
2023-04-30T20:59:06.869Z,101219.88
2023-04-30T21:02:10.382Z,101229.81
2023-04-30T21:05:12.964Z,101226.72
2023-04-30T21:08:15.481Z,101232.97
2023-04-30T21:11:19.448Z,101244.44
2023-04-30T21:14:22.134Z,101237.44
2023-04-30T21:17:24.614Z,101241.19
2023-04-30T21:20:27.147Z,101242.19
2023-04-30T21:23:30.155Z,101234.31
2023-04-30T21:26:33.022Z,101241.41
2023-04-30T21:29:36.881Z,101247.81
2023-04-30T21:32:42.514Z,101251.16
2023-04-30T21:35:45.366Z,101249.88
2023-04-30T21:38:47.713Z,101251.97
2023-04-30T21:41:50.379Z,101237.44
2023-04-30T21:44:53.740Z,101259.63
2023-04-30T21:47:56.323Z,101265.19
2023-04-30T21:50:58.960Z,101265.84
2023-04-30T21:54:01.505Z,101271.47
2023-04-30T21:57:04.472Z,101265.00
2023-04-30T22:00:14.513Z,101258.97
2023-04-30T22:03:23.101Z,101272.28
2023-04-30T22:06:25.775Z,101263.38
2023-04-30T22:09:28.240Z,101267.06
2023-04-30T22:12:30.706Z,101273.91
2023-04-30T22:15:47.196Z,101276.19
2023-04-30T22:18:50.512Z,101279.47
2023-04-30T22:21:53.081Z,101278.22
2023-04-30T22:24:56.019Z,101278.22
2023-04-30T22:27:58.348Z,101278.63
2023-04-30T22:31:00.825Z,101283.63
2023-04-30T22:34:03.523Z,101284.47
2023-04-30T22:37:06.335Z,101278.63
2023-04-30T22:40:09.175Z,101289.81
2023-04-30T22:43:11.843Z,101285.47
2023-04-30T22:46:14.603Z,101285.41
2023-04-30T22:49:29.989Z,101280.41
2023-04-30T22:52:33.607Z,101279.78
2023-04-30T22:55:36.116Z,101286.84
2023-04-30T22:58:38.590Z,101283.13
2023-04-30T23:01:40.934Z,101282.47
2023-04-30T23:04:43.292Z,101283.31
2023-04-30T23:07:49.567Z,101284.50
2023-04-30T23:10:53.351Z,101288.81
2023-04-30T23:13:56.295Z,101281.31
2023-04-30T23:16:58.950Z,101290.41
2023-04-30T23:20:01.598Z,101291.44
2023-04-30T23:23:04.675Z,101277.47
2023-04-30T23:26:07.201Z,101296.31
2023-04-30T23:29:09.636Z,101286.19
2023-04-30T23:32:12.159Z,101294.84
2023-04-30T23:35:14.687Z,101298.06
2023-04-30T23:38:16.957Z,101287.91
2023-04-30T23:41:19.895Z,101286.47
2023-04-30T23:44:22.198Z,101290.72
2023-04-30T23:47:24.655Z,101286.56
2023-04-30T23:50:27.103Z,101288.28
2023-04-30T23:53:30.105Z,101284.94
2023-04-30T23:56:37.429Z,101277.88
2023-04-30T23:59:39.838Z,101285.56
